createdAt,value
2016-09-05T00:00:35.971Z,16.21
2016-09-05T00:01:36.604Z,16.17
2016-09-05T00:02:37.249Z,16.23
2016-09-05T00:03:37.882Z,16.2
2016-09-05T00:04:38.529Z,16.13
2016-09-05T00:05:39.170Z,16.26
2016-09-05T00:06:39.832Z,16.21
2016-09-05T00:07:40.494Z,16.2
2016-09-05T00:08:41.225Z,16.16
2016-09-05T00:09:41.857Z,16.17
2016-09-05T00:10:42.533Z,16.17
2016-09-05T00:11:43.183Z,16.24
2016-09-05T00:12:43.807Z,16.2
2016-09-05T00:13:44.431Z,16.21
2016-09-05T00:14:45.068Z,16.15
2016-09-05T00:15:45.725Z,16.16
2016-09-05T00:16:46.358Z,16.15
2016-09-05T00:17:47.019Z,16.13
2016-09-05T00:18:47.690Z,16.17
2016-09-05T00:19:48.360Z,16.15
2016-09-05T00:20:49.009Z,16.13
2016-09-05T00:21:49.661Z,16.21
2016-09-05T00:22:50.311Z,16.21
2016-09-05T00:23:50.973Z,16.23
2016-09-05T00:24:51.612Z,16.2
2016-09-05T00:25:52.265Z,16.2
2016-09-05T00:26:52.904Z,16.17
2016-09-05T00:27:53.538Z,16.13
2016-09-05T00:28:54.167Z,16.15
2016-09-05T00:29:54.802Z,16.21
2016-09-05T00:30:55.449Z,16.2
2016-09-05T00:31:56.085Z,16.12
2016-09-05T00:32:56.740Z,16.17
2016-09-05T00:33:57.369Z,16.15
2016-09-05T00:34:58.036Z,16.17
2016-09-05T00:35:58.696Z,16.17
2016-09-05T00:36:59.329Z,16.15
2016-09-05T00:37:59.970Z,16.24
2016-09-05T00:39:00.585Z,16.24
2016-09-05T00:40:01.206Z,16.2
2016-09-05T00:41:01.870Z,16.1
2016-09-05T00:42:02.497Z,16.09
2016-09-05T00:43:03.136Z,16.12
2016-09-05T00:44:03.763Z,16.2
2016-09-05T00:45:04.414Z,16.21
2016-09-05T00:46:05.072Z,16.17
2016-09-05T00:47:05.724Z,16.21
2016-09-05T00:48:06.394Z,16.16
2016-09-05T00:49:07.049Z,16.15
2016-09-05T00:50:07.711Z,16.15
2016-09-05T00:51:08.351Z,16.21
2016-09-05T00:52:09.033Z,16.28
2016-09-05T00:53:09.665Z,16.15
2016-09-05T00:54:10.336Z,16.15
2016-09-05T00:55:10.988Z,16.12
2016-09-05T00:56:11.623Z,16.2
2016-09-05T00:57:12.265Z,16.1
2016-09-05T00:58:12.918Z,16.12
2016-09-05T00:59:13.584Z,16.17
2016-09-05T01:00:14.219Z,16.21
2016-09-05T01:01:14.860Z,16.2
2016-09-05T01:02:15.533Z,16.17
2016-09-05T01:03:16.178Z,16.13
2016-09-05T01:04:16.830Z,16.12
2016-09-05T01:05:17.517Z,16.1
2016-09-05T01:06:18.161Z,16.21
2016-09-05T01:07:18.796Z,16.16
2016-09-05T01:08:19.437Z,16.2
2016-09-05T01:09:20.079Z,16.17
2016-09-05T01:10:20.725Z,16.12
2016-09-05T01:11:21.373Z,16.16
2016-09-05T01:12:22.015Z,16.15
2016-09-05T01:13:22.645Z,16.16
2016-09-05T01:14:23.279Z,16.2
2016-09-05T01:15:23.914Z,16.15
2016-09-05T01:16:24.560Z,16.1
2016-09-05T01:17:25.177Z,16.17
2016-09-05T01:18:25.825Z,16.13
2016-09-05T01:19:26.463Z,16.26
2016-09-05T01:20:27.096Z,16.2
2016-09-05T01:21:27.744Z,16.16
2016-09-05T01:22:28.374Z,16.23
2016-09-05T01:23:29.044Z,16.26
2016-09-05T01:24:29.713Z,16.31
2016-09-05T01:25:30.386Z,16.2
2016-09-05T01:26:31.018Z,16.26
2016-09-05T01:27:31.675Z,16.21
2016-09-05T01:28:32.305Z,16.23
2016-09-05T01:29:32.936Z,16.13
2016-09-05T01:30:33.568Z,16.13
2016-09-05T01:31:34.215Z,16.12
2016-09-05T01:32:34.893Z,16.02
2016-09-05T01:33:35.507Z,16.09
2016-09-05T01:34:36.129Z,16.04
2016-09-05T01:35:36.756Z,16.02
2016-09-05T01:36:37.382Z,16.04
2016-09-05T01:37:38.012Z,16.01
2016-09-05T01:38:38.662Z,16.02
2016-09-05T01:39:39.287Z,16
2016-09-05T01:40:39.954Z,16.08
2016-09-05T01:41:40.585Z,16.08
2016-09-05T01:42:41.207Z,16.1
2016-09-05T01:43:41.831Z,15.92
2016-09-05T01:44:42.490Z,15.98
2016-09-05T01:45:43.121Z,15.91
2016-09-05T01:46:43.796Z,16.02
2016-09-05T01:47:44.410Z,15.98
2016-09-05T01:48:45.034Z,15.95
2016-09-05T01:49:45.701Z,15.97
2016-09-05T01:50:46.320Z,15.94
2016-09-05T01:51:47.050Z,16.01
2016-09-05T01:52:47.679Z,16.08
2016-09-05T01:53:48.327Z,16.02
2016-09-05T01:54:48.964Z,15.92
2016-09-05T01:55:49.633Z,16.02
2016-09-05T01:56:50.293Z,16.01
2016-09-05T01:57:50.937Z,16.01
2016-09-05T01:58:51.578Z,16.04
2016-09-05T01:59:52.221Z,15.98
2016-09-05T02:00:52.852Z,16
2016-09-05T02:01:53.500Z,15.95
2016-09-05T02:02:54.187Z,16
2016-09-05T02:03:54.857Z,15.94
2016-09-05T02:04:55.471Z,15.91
2016-09-05T02:05:56.109Z,15.86
2016-09-05T02:06:56.745Z,15.91
2016-09-05T02:07:57.396Z,15.84
2016-09-05T02:08:58.048Z,15.9
2016-09-05T02:09:58.689Z,15.88
2016-09-05T02:10:59.313Z,15.88
2016-09-05T02:11:59.931Z,15.83
2016-09-05T02:13:00.550Z,15.82
2016-09-05T02:14:01.175Z,15.97
2016-09-05T02:15:01.792Z,15.95
2016-09-05T02:16:02.414Z,15.94
2016-09-05T02:17:03.032Z,15.9
2016-09-05T02:18:03.660Z,15.84
2016-09-05T02:19:04.281Z,15.88
2016-09-05T02:20:04.918Z,15.92
2016-09-05T02:21:05.543Z,15.9
2016-09-05T02:22:06.187Z,15.88
2016-09-05T02:23:06.831Z,15.91
2016-09-05T02:24:07.451Z,15.91
2016-09-05T02:25:08.109Z,15.83
2016-09-05T02:26:08.756Z,15.88
2016-09-05T02:27:09.386Z,15.91
2016-09-05T02:28:10.021Z,15.88
2016-09-05T02:29:10.662Z,15.84
2016-09-05T02:30:11.319Z,15.86
2016-09-05T02:31:11.969Z,15.88
2016-09-05T02:32:12.588Z,15.92
2016-09-05T02:33:13.232Z,15.92
2016-09-05T02:34:13.853Z,15.94
2016-09-05T02:35:14.476Z,15.88
2016-09-05T02:36:15.118Z,15.84
2016-09-05T02:37:15.803Z,15.97
2016-09-05T02:38:16.461Z,15.97
2016-09-05T02:39:17.077Z,15.94
2016-09-05T02:40:17.710Z,16.02
2016-09-05T02:41:18.327Z,15.88
2016-09-05T02:42:18.965Z,16
2016-09-05T02:43:19.588Z,16.04
2016-09-05T02:44:20.247Z,16.09
2016-09-05T02:45:20.935Z,16.01
2016-09-05T02:46:21.589Z,16.04
2016-09-05T02:47:22.259Z,16
2016-09-05T02:48:22.889Z,15.92
2016-09-05T02:49:23.523Z,16
2016-09-05T02:50:24.158Z,16.08
2016-09-05T02:51:24.807Z,16.1
2016-09-05T02:52:25.457Z,16.04
2016-09-05T02:53:26.080Z,16.08
2016-09-05T02:54:26.706Z,16.09
2016-09-05T02:55:27.327Z,16
2016-09-05T02:56:27.947Z,16
2016-09-05T02:57:28.586Z,16.12
2016-09-05T02:58:29.207Z,16.02
2016-09-05T02:59:29.853Z,16.21
2016-09-05T03:00:30.505Z,16.09
2016-09-05T03:01:31.164Z,16.05
2016-09-05T03:02:31.787Z,16.12
2016-09-05T03:03:32.409Z,16.08
2016-09-05T03:04:33.053Z,16.13
2016-09-05T03:05:33.698Z,16.15
2016-09-05T03:06:34.354Z,16.13
2016-09-05T03:07:34.975Z,16.09
2016-09-05T03:08:35.604Z,16.13
2016-09-05T03:09:36.224Z,16.08
2016-09-05T03:10:36.852Z,16.13
2016-09-05T03:11:37.493Z,16.1
2016-09-05T03:12:38.128Z,16.17
2016-09-05T03:13:38.754Z,16.13
2016-09-05T03:14:39.369Z,16.12
2016-09-05T03:15:39.994Z,16.21
2016-09-05T03:16:40.618Z,16.15
2016-09-05T03:17:41.235Z,16.16
2016-09-05T03:18:41.855Z,16.16
2016-09-05T03:19:42.480Z,16.09
2016-09-05T03:20:43.098Z,16.13
2016-09-05T03:21:43.724Z,16.17
2016-09-05T03:22:44.337Z,16.16
2016-09-05T03:23:44.964Z,16.16
2016-09-05T03:24:45.581Z,16.24
2016-09-05T03:25:46.204Z,16.15
2016-09-05T03:26:46.852Z,16.16
2016-09-05T03:27:47.485Z,16.2
2016-09-05T03:28:48.115Z,16.24
2016-09-05T03:29:48.756Z,16.23
2016-09-05T03:30:49.387Z,16.2
2016-09-05T03:31:50.027Z,16.2
2016-09-05T03:32:50.644Z,16.2
2016-09-05T03:33:51.268Z,16.16
2016-09-05T03:34:51.901Z,16.24
2016-09-05T03:35:52.566Z,16.23
2016-09-05T03:36:53.189Z,16.2
2016-09-05T03:37:53.814Z,16.24
2016-09-05T03:38:54.433Z,16.23
2016-09-05T03:39:55.058Z,16.2
2016-09-05T03:40:55.674Z,16.28
2016-09-05T03:41:56.295Z,16.24
2016-09-05T03:42:56.960Z,16.21
2016-09-05T03:43:57.630Z,16.21
2016-09-05T03:44:58.265Z,16.16
2016-09-05T03:45:58.879Z,16.24
2016-09-05T03:46:59.503Z,16.21
2016-09-05T03:48:00.191Z,16.15
2016-09-05T03:49:00.827Z,16.23
2016-09-05T03:50:01.471Z,16.26
2016-09-05T03:51:02.110Z,16.38
2016-09-05T03:52:02.749Z,16.21
2016-09-05T03:53:03.377Z,16.21
2016-09-05T03:54:04.045Z,16.24
2016-09-05T03:55:04.680Z,16.28
2016-09-05T03:56:05.314Z,16.33
2016-09-05T03:57:05.976Z,16.24
2016-09-05T03:58:06.639Z,16.28
2016-09-05T03:59:07.295Z,16.28
2016-09-05T04:00:07.931Z,16.35
2016-09-05T04:01:08.557Z,16.15
2016-09-05T04:02:09.197Z,16.15
2016-09-05T04:03:09.831Z,16.21
2016-09-05T04:04:10.463Z,16.2
2016-09-05T04:05:11.114Z,16.2
2016-09-05T04:06:11.756Z,16.23
2016-09-05T04:07:12.383Z,16.24
2016-09-05T04:08:13.006Z,16.15
2016-09-05T04:09:13.640Z,16.16
2016-09-05T04:10:14.289Z,16.21
2016-09-05T04:11:14.916Z,16.28
2016-09-05T04:12:15.558Z,16.26
2016-09-05T04:13:16.202Z,16.15
2016-09-05T04:14:16.836Z,16.31
2016-09-05T04:15:17.485Z,16.28
2016-09-05T04:16:18.129Z,16.28
2016-09-05T04:17:18.761Z,16.31
2016-09-05T04:18:19.402Z,16.33
2016-09-05T04:19:20.031Z,16.33
2016-09-05T04:20:20.664Z,16.31
2016-09-05T04:21:21.295Z,16.2
2016-09-05T04:22:21.941Z,16.23
2016-09-05T04:23:22.580Z,16.21
2016-09-05T04:24:23.228Z,16.21
2016-09-05T04:25:23.888Z,16.17
2016-09-05T04:26:24.528Z,16.23
2016-09-05T04:27:25.177Z,16.24
2016-09-05T04:28:25.824Z,16.28
2016-09-05T04:29:26.474Z,16.28
2016-09-05T04:30:27.091Z,16.13
2016-09-05T04:31:27.756Z,16.17
2016-09-05T04:32:28.406Z,16.31
2016-09-05T04:33:29.043Z,16.31
2016-09-05T04:34:29.699Z,16.35
2016-09-05T04:35:30.355Z,16.31
2016-09-05T04:36:31.033Z,16.36
2016-09-05T04:37:31.657Z,16.35
2016-09-05T04:38:32.318Z,16.39
2016-09-05T04:39:32.963Z,16.31
2016-09-05T04:40:33.614Z,16.35
2016-09-05T04:41:34.257Z,16.38
2016-09-05T04:42:34.915Z,16.33
2016-09-05T04:43:35.614Z,16.29
2016-09-05T04:44:36.263Z,16.29
2016-09-05T04:45:36.883Z,16.31
2016-09-05T04:46:37.547Z,16.2
2016-09-05T04:47:38.188Z,16.35
2016-09-05T04:48:38.844Z,16.31
2016-09-05T04:49:39.499Z,16.16
2016-09-05T04:50:40.135Z,16.35
2016-09-05T04:51:40.771Z,16.29
2016-09-05T04:52:41.407Z,16.35
2016-09-05T04:53:42.060Z,16.33
2016-09-05T04:54:42.706Z,16.35
2016-09-05T04:55:43.341Z,16.29
2016-09-05T04:56:43.962Z,16.35
2016-09-05T04:57:44.598Z,16.31
2016-09-05T04:58:45.271Z,16.33
2016-09-05T04:59:45.926Z,16.35
2016-09-05T05:00:46.609Z,16.32
2016-09-05T05:01:47.259Z,16.36
2016-09-05T05:02:47.894Z,16.35
2016-09-05T05:03:48.533Z,16.42
2016-09-05T05:04:49.178Z,16.36
2016-09-05T05:05:49.815Z,16.42
2016-09-05T05:06:50.472Z,16.35
2016-09-05T05:07:51.171Z,16.41
2016-09-05T05:08:51.818Z,16.41
2016-09-05T05:09:52.489Z,16.39
2016-09-05T05:10:53.128Z,16.39
2016-09-05T05:11:53.772Z,16.43
2016-09-05T05:12:54.406Z,16.39
2016-09-05T05:13:55.060Z,16.35
2016-09-05T05:14:55.708Z,16.43
2016-09-05T05:15:56.351Z,16.38
2016-09-05T05:16:56.993Z,16.41
2016-09-05T05:17:57.622Z,16.31
2016-09-05T05:18:58.271Z,16.38
2016-09-05T05:19:58.902Z,16.35
2016-09-05T05:20:59.531Z,16.36
2016-09-05T05:22:00.186Z,16.35
2016-09-05T05:23:00.829Z,16.33
2016-09-05T05:24:01.481Z,16.36
2016-09-05T05:25:02.134Z,16.36
2016-09-05T05:26:02.768Z,16.38
2016-09-05T05:27:03.408Z,16.41
2016-09-05T05:28:04.046Z,16.31
2016-09-05T05:29:04.683Z,16.29
2016-09-05T05:30:05.337Z,16.41
2016-09-05T05:31:05.970Z,16.39
2016-09-05T05:32:06.617Z,16.41
2016-09-05T05:33:07.268Z,16.42
2016-09-05T05:34:07.911Z,16.39
2016-09-05T05:35:08.550Z,16.42
2016-09-05T05:36:09.206Z,16.39
2016-09-05T05:37:09.845Z,16.5
2016-09-05T05:38:10.485Z,16.51
2016-09-05T05:39:11.137Z,16.43
2016-09-05T05:40:11.775Z,16.5
2016-09-05T05:41:12.421Z,16.42
2016-09-05T05:42:13.081Z,16.39
2016-09-05T05:43:13.744Z,16.41
2016-09-05T05:44:14.384Z,16.39
2016-09-05T05:45:15.037Z,16.47
2016-09-05T05:46:15.687Z,16.49
2016-09-05T05:47:16.333Z,16.49
2016-09-05T05:48:16.980Z,16.49
2016-09-05T05:49:17.626Z,16.47
2016-09-05T05:50:18.290Z,16.5
2016-09-05T05:51:18.967Z,16.51
2016-09-05T05:52:19.643Z,16.46
2016-09-05T05:53:20.290Z,16.49
2016-09-05T05:54:20.922Z,16.5
2016-09-05T05:55:21.588Z,16.46
2016-09-05T05:56:22.228Z,16.46
2016-09-05T05:57:22.858Z,16.46
2016-09-05T05:58:23.513Z,16.5
2016-09-05T05:59:24.152Z,16.54
2016-09-05T06:00:24.791Z,16.57
2016-09-05T06:01:25.694Z,16.58
2016-09-05T06:02:26.356Z,16.61
2016-09-05T06:03:26.977Z,16.56
2016-09-05T06:04:27.626Z,16.6
2016-09-05T06:05:28.273Z,16.61
2016-09-05T06:06:28.927Z,16.61
2016-09-05T06:07:29.548Z,16.58
2016-09-05T06:08:30.190Z,16.6
2016-09-05T06:09:30.811Z,16.57
2016-09-05T06:10:31.473Z,16.57
2016-09-05T06:11:32.116Z,16.6
2016-09-05T06:12:32.759Z,16.64
2016-09-05T06:13:33.395Z,16.64
2016-09-05T06:14:34.037Z,16.56
2016-09-05T06:15:34.713Z,16.57
2016-09-05T06:16:35.350Z,16.71
2016-09-05T06:17:35.969Z,16.74
2016-09-05T06:18:36.662Z,16.83
2016-09-05T06:19:37.308Z,16.74
2016-09-05T06:20:37.955Z,16.83
2016-09-05T06:21:38.603Z,16.84
2016-09-05T06:22:39.284Z,16.97
2016-09-05T06:23:39.903Z,16.84
2016-09-05T06:24:40.520Z,16.97
2016-09-05T06:25:41.154Z,16.99
2016-09-05T06:26:41.789Z,17.04
2016-09-05T06:27:42.421Z,17.02
2016-09-05T06:28:43.074Z,17.06
2016-09-05T06:29:43.712Z,17.11
2016-09-05T06:30:44.347Z,17.06
2016-09-05T06:31:45.024Z,17.14
2016-09-05T06:32:45.660Z,17.16
2016-09-05T06:33:46.308Z,17.23
2016-09-05T06:34:46.935Z,17.24
2016-09-05T06:35:47.575Z,17.22
2016-09-05T06:36:48.210Z,17.24
2016-09-05T06:37:48.852Z,17.26
2016-09-05T06:38:49.478Z,17.22
2016-09-05T06:39:50.168Z,17.27
2016-09-05T06:40:50.918Z,17.26
2016-09-05T06:41:51.561Z,17.26
2016-09-05T06:42:52.208Z,17.27
2016-09-05T06:43:52.998Z,17.22
2016-09-05T06:44:53.630Z,17.2
2016-09-05T06:45:54.302Z,17.22
2016-09-05T06:46:54.953Z,17.31
2016-09-05T06:47:55.602Z,17.16
2016-09-05T06:48:56.221Z,17.23
2016-09-05T06:49:56.857Z,17.11
2016-09-05T06:50:57.485Z,17.05
2016-09-05T06:51:58.121Z,16.99
2016-09-05T06:52:58.774Z,17.04
2016-09-05T06:53:59.412Z,17.08
2016-09-05T06:55:00.077Z,17.04
2016-09-05T06:56:00.720Z,17.11
2016-09-05T06:57:01.357Z,17.09
2016-09-05T06:58:02.010Z,17.11
2016-09-05T06:59:02.667Z,17.08
2016-09-05T07:00:03.310Z,17.02
2016-09-05T07:01:03.966Z,17.05
2016-09-05T07:02:04.592Z,17.06
2016-09-05T07:03:05.256Z,17.04
2016-09-05T07:04:05.875Z,17.08
2016-09-05T07:05:06.505Z,17.2
2016-09-05T07:06:07.169Z,17.19
2016-09-05T07:07:07.803Z,17.22
2016-09-05T07:08:08.472Z,17.24
2016-09-05T07:09:09.143Z,17.23
2016-09-05T07:10:09.806Z,17.29
2016-09-05T07:11:10.469Z,17.34
2016-09-05T07:12:11.103Z,17.29
2016-09-05T07:13:11.740Z,17.31
2016-09-05T07:14:12.383Z,17.3
2016-09-05T07:15:13.010Z,17.36
2016-09-05T07:16:13.635Z,17.36
2016-09-05T07:17:14.256Z,17.39
2016-09-05T07:18:14.880Z,17.27
2016-09-05T07:19:15.515Z,17.34
2016-09-05T07:20:16.144Z,17.26
2016-09-05T07:21:16.806Z,17.29
2016-09-05T07:22:17.428Z,17.31
2016-09-05T07:23:18.086Z,17.24
2016-09-05T07:24:18.887Z,17.23
2016-09-05T07:25:20.081Z,17.29
2016-09-05T07:26:21.138Z,17.24
2016-09-05T07:27:21.815Z,17.24
2016-09-05T07:28:22.446Z,17.14
2016-09-05T07:29:23.114Z,17.29
2016-09-05T07:30:23.741Z,17.24
2016-09-05T07:31:24.370Z,17.23
2016-09-05T07:32:25.027Z,17.2
2016-09-05T07:33:25.653Z,17.27
2016-09-05T07:34:26.287Z,17.31
2016-09-05T07:35:26.944Z,17.23
2016-09-05T07:36:27.653Z,17.23
2016-09-05T07:37:28.286Z,17.33
2016-09-05T07:38:28.914Z,17.31
2016-09-05T07:39:29.569Z,17.39
2016-09-05T07:40:30.238Z,17.3
2016-09-05T07:41:30.878Z,17.41
2016-09-05T07:42:31.549Z,17.29
2016-09-05T07:43:32.169Z,17.34
2016-09-05T07:44:32.807Z,17.36
2016-09-05T07:45:33.460Z,17.34
2016-09-05T07:46:34.100Z,17.3
2016-09-05T07:47:34.735Z,17.44
2016-09-05T07:48:35.380Z,17.48
2016-09-05T07:49:36.041Z,17.49
2016-09-05T07:50:36.682Z,17.49
2016-09-05T07:51:37.337Z,17.46
2016-09-05T07:52:37.968Z,17.45
2016-09-05T07:53:38.589Z,17.54
2016-09-05T07:54:39.229Z,17.51
2016-09-05T07:55:39.875Z,17.48
2016-09-05T07:56:40.531Z,17.42
2016-09-05T07:57:41.163Z,17.45
2016-09-05T07:58:41.792Z,17.45
2016-09-05T07:59:42.432Z,17.56
2016-09-05T08:00:43.081Z,17.52
2016-09-05T08:01:43.702Z,17.54
2016-09-05T08:02:44.323Z,17.46
2016-09-05T08:03:44.943Z,17.49
2016-09-05T08:04:45.575Z,17.51
2016-09-05T08:05:46.196Z,17.6
2016-09-05T08:06:46.854Z,17.59
2016-09-05T08:07:47.535Z,17.45
2016-09-05T08:08:48.167Z,17.49
2016-09-05T08:09:48.801Z,17.48
2016-09-05T08:10:49.438Z,17.52
2016-09-05T08:11:50.072Z,17.46
2016-09-05T08:12:50.709Z,17.52
2016-09-05T08:13:51.336Z,17.51
2016-09-05T08:14:51.970Z,17.46
2016-09-05T08:15:52.597Z,17.39
2016-09-05T08:16:53.231Z,17.45
2016-09-05T08:17:53.864Z,17.46
2016-09-05T08:18:54.487Z,17.41
2016-09-05T08:19:55.149Z,17.39
2016-09-05T08:20:55.776Z,17.2
2016-09-05T08:21:56.427Z,17.27
2016-09-05T08:22:57.070Z,17.22
2016-09-05T08:23:57.718Z,17.23
2016-09-05T08:24:58.372Z,17.31
2016-09-05T08:25:58.986Z,17.33
2016-09-05T08:26:59.609Z,17.33
2016-09-05T08:28:00.250Z,17.36
2016-09-05T08:29:00.883Z,17.42
2016-09-05T08:30:01.516Z,17.45
2016-09-05T08:31:02.171Z,17.44
2016-09-05T08:32:02.793Z,17.52
2016-09-05T08:33:03.412Z,17.41
2016-09-05T08:34:04.069Z,17.49
2016-09-05T08:35:04.713Z,17.51
2016-09-05T08:36:05.333Z,17.56
2016-09-05T08:37:05.975Z,17.45
2016-09-05T08:38:06.608Z,17.59
2016-09-05T08:39:07.250Z,17.6
2016-09-05T08:40:07.886Z,17.71
2016-09-05T08:41:08.528Z,17.7
2016-09-05T08:42:09.178Z,17.7
2016-09-05T08:43:09.798Z,17.68
2016-09-05T08:44:10.419Z,17.76
2016-09-05T08:45:11.059Z,17.87
2016-09-05T08:46:11.699Z,17.98
2016-09-05T08:47:12.335Z,18.08
2016-09-05T08:48:12.958Z,18.37
2016-09-05T08:49:13.609Z,18.53
2016-09-05T08:50:14.253Z,18.75
2016-09-05T08:51:14.901Z,18.88
2016-09-05T08:52:15.541Z,19.3
2016-09-05T08:53:16.213Z,19.55
2016-09-05T08:54:16.874Z,19.33
2016-09-05T08:55:17.514Z,19.44
2016-09-05T08:56:18.158Z,19.63
2016-09-05T08:57:19.517Z,19.31
2016-09-05T08:58:20.166Z,18.98
2016-09-05T08:59:20.810Z,18.8
2016-09-05T09:00:21.441Z,18.9
2016-09-05T09:01:22.089Z,18.96
2016-09-05T09:02:22.724Z,18.99
2016-09-05T09:03:23.388Z,18.89
2016-09-05T09:04:24.043Z,18.92
2016-09-05T09:05:24.707Z,18.96
2016-09-05T09:06:25.348Z,18.86
2016-09-05T09:07:26.008Z,18.9
2016-09-05T09:08:26.666Z,18.96
2016-09-05T09:09:27.315Z,19.12
2016-09-05T09:10:27.973Z,19
2016-09-05T09:11:28.632Z,18.96
2016-09-05T09:12:29.273Z,19
2016-09-05T09:13:29.962Z,18.95
2016-09-05T09:14:30.710Z,18.9
2016-09-05T09:15:31.421Z,18.99
2016-09-05T09:16:32.124Z,19.09
2016-09-05T09:17:32.769Z,18.98
2016-09-05T09:18:33.410Z,18.88
2016-09-05T09:19:34.059Z,18.93
2016-09-05T09:20:34.701Z,18.93
2016-09-05T09:21:35.345Z,18.81
2016-09-05T09:22:35.978Z,18.78
2016-09-05T09:23:36.624Z,18.66
2016-09-05T09:24:37.293Z,18.6
2016-09-05T09:25:37.938Z,18.6
2016-09-05T09:26:38.563Z,18.53
2016-09-05T09:27:39.225Z,18.63
2016-09-05T09:28:39.852Z,18.5
2016-09-05T09:29:40.501Z,18.49
2016-09-05T09:30:41.149Z,18.35
2016-09-05T09:31:41.781Z,18.31
2016-09-05T09:32:42.429Z,18.31
2016-09-05T09:33:43.092Z,18.37
2016-09-05T09:34:43.738Z,18.31
2016-09-05T09:35:44.397Z,18.28
2016-09-05T09:36:45.027Z,18.29
2016-09-05T09:37:45.651Z,18.29
2016-09-05T09:38:46.313Z,18.44
2016-09-05T09:39:46.932Z,18.47
2016-09-05T09:40:47.560Z,18.6
2016-09-05T09:41:48.211Z,18.66
2016-09-05T09:42:48.853Z,18.53
2016-09-05T09:43:49.480Z,18.43
2016-09-05T09:44:50.104Z,18.49
2016-09-05T09:45:50.776Z,18.52
2016-09-05T09:46:51.429Z,18.59
2016-09-05T09:47:52.051Z,18.68
2016-09-05T09:48:52.856Z,18.8
2016-09-05T09:49:53.355Z,18.86
2016-09-05T09:50:54.021Z,18.78
2016-09-05T09:51:54.658Z,18.77
2016-09-05T09:52:55.284Z,18.68
2016-09-05T09:53:55.926Z,18.65
2016-09-05T09:54:56.573Z,18.74
2016-09-05T09:55:57.216Z,18.7
2016-09-05T09:56:57.858Z,18.55
2016-09-05T09:57:58.518Z,18.45
2016-09-05T09:58:59.182Z,18.45
2016-09-05T09:59:59.830Z,18.37
2016-09-05T10:01:00.452Z,18.38
2016-09-05T10:02:01.131Z,18.31
2016-09-05T10:03:01.793Z,18.31
2016-09-05T10:04:02.444Z,18.37
2016-09-05T10:05:03.076Z,18.25
2016-09-05T10:06:03.711Z,18.31
2016-09-05T10:07:04.329Z,18.31
2016-09-05T10:08:04.951Z,18.2
2016-09-05T10:09:05.583Z,18.2
2016-09-05T10:10:06.212Z,18.1
2016-09-05T10:11:06.857Z,18.1
2016-09-05T10:12:07.506Z,18.16
2016-09-05T10:13:08.149Z,18.19
2016-09-05T10:14:08.801Z,18.23
2016-09-05T10:15:09.543Z,18.38
2016-09-05T10:16:10.173Z,18.34
2016-09-05T10:17:10.816Z,18.45
2016-09-05T10:18:11.466Z,18.47
2016-09-05T10:19:12.108Z,18.43
2016-09-05T10:20:12.762Z,18.41
2016-09-05T10:21:13.426Z,18.44
2016-09-05T10:22:14.066Z,18.49
2016-09-05T10:23:14.738Z,18.53
2016-09-05T10:24:15.393Z,18.65
2016-09-05T10:25:16.038Z,18.68
2016-09-05T10:26:16.690Z,18.83
2016-09-05T10:27:17.371Z,18.78
2016-09-05T10:28:18.001Z,18.8
2016-09-05T10:29:18.654Z,18.88
2016-09-05T10:30:19.323Z,18.81
2016-09-05T10:31:19.967Z,18.9
2016-09-05T10:32:20.638Z,18.88
2016-09-05T10:33:21.262Z,18.89
2016-09-05T10:34:21.904Z,18.9
2016-09-05T10:35:22.528Z,18.96
2016-09-05T10:36:23.150Z,18.8
2016-09-05T10:37:23.809Z,18.88
2016-09-05T10:38:24.554Z,18.9
2016-09-05T10:39:25.205Z,18.86
2016-09-05T10:40:25.860Z,18.77
2016-09-05T10:41:26.512Z,18.8
2016-09-05T10:42:27.151Z,18.7
2016-09-05T10:43:27.799Z,18.66
2016-09-05T10:44:28.444Z,18.56
2016-09-05T10:45:29.066Z,18.56
2016-09-05T10:46:29.717Z,18.49
2016-09-05T10:47:30.363Z,18.43
2016-09-05T10:48:31.002Z,18.41
2016-09-05T10:49:31.626Z,18.34
2016-09-05T10:50:32.249Z,18.44
2016-09-05T10:51:32.890Z,18.37
2016-09-05T10:52:33.520Z,18.5
2016-09-05T10:53:34.162Z,18.43
2016-09-05T10:54:34.793Z,18.44
2016-09-05T10:55:35.420Z,18.41
2016-09-05T10:56:36.079Z,18.44
2016-09-05T10:57:36.730Z,18.38
2016-09-05T10:58:37.361Z,18.37
2016-09-05T10:59:37.997Z,18.45
2016-09-05T11:00:38.634Z,18.45
2016-09-05T11:01:39.306Z,18.45
2016-09-05T11:02:39.938Z,18.52
2016-09-05T11:03:40.561Z,18.55
2016-09-05T11:04:41.211Z,18.59
2016-09-05T11:05:41.842Z,18.55
2016-09-05T11:06:42.480Z,18.63
2016-09-05T11:07:43.119Z,18.68
2016-09-05T11:08:43.743Z,18.68
2016-09-05T11:09:44.372Z,18.66
2016-09-05T11:10:45.003Z,18.83
2016-09-05T11:11:45.675Z,18.75
2016-09-05T11:12:46.337Z,18.8
2016-09-05T11:13:46.974Z,18.88
2016-09-05T11:14:47.611Z,18.88
2016-09-05T11:15:48.252Z,18.95
2016-09-05T11:16:48.875Z,18.88
2016-09-05T11:17:49.506Z,18.95
2016-09-05T11:18:50.158Z,18.9
2016-09-05T11:19:50.850Z,18.96
2016-09-05T11:20:51.497Z,19
2016-09-05T11:21:52.137Z,18.99
2016-09-05T11:22:52.768Z,19.07
2016-09-05T11:23:53.484Z,19
2016-09-05T11:24:54.298Z,19.07
2016-09-05T11:25:55.013Z,18.99
2016-09-05T11:26:55.656Z,19
2016-09-05T11:27:56.400Z,19
2016-09-05T11:28:57.054Z,18.99
2016-09-05T11:29:57.717Z,18.98
2016-09-05T11:30:58.401Z,18.99
2016-09-05T11:31:59.056Z,18.88
2016-09-05T11:32:59.728Z,18.98
2016-09-05T11:34:00.372Z,18.89
2016-09-05T11:35:01.005Z,18.95
2016-09-05T11:36:01.647Z,18.98
2016-09-05T11:37:02.312Z,18.99
2016-09-05T11:38:02.981Z,18.99
2016-09-05T11:39:03.676Z,19
2016-09-05T11:40:04.319Z,19
2016-09-05T11:41:05.020Z,18.98
2016-09-05T11:42:05.683Z,18.88
2016-09-05T11:43:06.315Z,18.95
2016-09-05T11:44:06.970Z,19
2016-09-05T11:45:07.650Z,18.99
2016-09-05T11:46:08.300Z,18.98
2016-09-05T11:47:08.950Z,18.9
2016-09-05T11:48:09.610Z,18.92
2016-09-05T11:49:10.273Z,18.89
2016-09-05T11:50:10.945Z,18.86
2016-09-05T11:51:11.575Z,18.95
2016-09-05T11:52:12.208Z,19.02
2016-09-05T11:53:12.962Z,18.95
2016-09-05T11:54:13.654Z,18.96
2016-09-05T11:55:14.359Z,18.99
2016-09-05T11:56:15.022Z,18.95
2016-09-05T11:57:15.650Z,18.93
2016-09-05T11:58:16.289Z,18.9
2016-09-05T11:59:16.927Z,18.99
2016-09-05T12:00:17.568Z,18.98
2016-09-05T12:01:18.262Z,18.96
2016-09-05T12:02:18.882Z,19.09
2016-09-05T12:03:19.545Z,19.08
2016-09-05T12:04:20.174Z,19.15
2016-09-05T12:05:20.822Z,19.29
2016-09-05T12:06:21.464Z,19.14
2016-09-05T12:07:22.108Z,19.15
2016-09-05T12:08:22.836Z,19.29
2016-09-05T12:09:23.487Z,19.26
2016-09-05T12:10:24.139Z,19.29
2016-09-05T12:11:24.781Z,19.29
2016-09-05T12:12:25.421Z,19.19
2016-09-05T12:13:26.082Z,19.26
2016-09-05T12:14:26.721Z,19.3
2016-09-05T12:15:27.363Z,19.27
2016-09-05T12:16:28.012Z,19.22
2016-09-05T12:17:28.666Z,19.31
2016-09-05T12:18:29.285Z,19.24
2016-09-05T12:19:29.955Z,19.3
2016-09-05T12:20:30.592Z,19.16
2016-09-05T12:21:31.221Z,19.15
2016-09-05T12:22:31.872Z,18.98
2016-09-05T12:23:32.525Z,19.02
2016-09-05T12:24:33.185Z,18.88
2016-09-05T12:25:33.909Z,18.89
2016-09-05T12:26:34.549Z,18.96
2016-09-05T12:27:35.182Z,18.93
2016-09-05T12:28:35.811Z,18.95
2016-09-05T12:29:36.443Z,18.86
2016-09-05T12:30:37.084Z,18.93
2016-09-05T12:31:37.714Z,18.88
2016-09-05T12:32:38.338Z,18.95
2016-09-05T12:33:38.979Z,18.86
2016-09-05T12:34:39.606Z,18.86
2016-09-05T12:35:40.258Z,18.77
2016-09-05T12:36:40.921Z,18.8
2016-09-05T12:37:41.545Z,18.88
2016-09-05T12:38:42.241Z,18.81
2016-09-05T12:39:42.877Z,18.66
2016-09-05T12:40:43.529Z,18.7
2016-09-05T12:41:44.178Z,18.65
2016-09-05T12:42:44.803Z,18.62
2016-09-05T12:43:45.432Z,18.6
2016-09-05T12:44:46.073Z,18.6
2016-09-05T12:45:46.726Z,18.7
2016-09-05T12:46:47.360Z,18.71
2016-09-05T12:47:48.007Z,18.66
2016-09-05T12:48:48.625Z,18.73
2016-09-05T12:49:49.267Z,18.63
2016-09-05T12:50:49.927Z,18.65
2016-09-05T12:51:50.567Z,18.62
2016-09-05T12:52:51.189Z,18.71
2016-09-05T12:53:51.828Z,18.63
2016-09-05T12:54:52.475Z,18.66
2016-09-05T12:55:53.111Z,18.68
2016-09-05T12:56:53.745Z,18.68
2016-09-05T12:57:54.391Z,18.84
2016-09-05T12:58:55.091Z,18.89
2016-09-05T12:59:55.795Z,18.81
2016-09-05T13:00:56.431Z,18.89
2016-09-05T13:01:57.058Z,18.9
2016-09-05T13:02:57.705Z,18.92
2016-09-05T13:03:58.383Z,18.89
2016-09-05T13:04:59.026Z,18.9
2016-09-05T13:05:59.665Z,18.93